sensor_id;sensor_type;location;lat;lon;timestamp;P1;durP1;ratioP1;P2;durP2;ratioP2
16837;SDS011;19510;54.486;9.046;2023-07-20T00:01:40;0.60;;;0.60;;
16837;SDS011;19510;54.486;9.046;2023-07-20T00:04:10;1.15;;;0.70;;
16837;SDS011;19510;54.486;9.046;2023-07-20T00:06:36;1.00;;;0.60;;
16837;SDS011;19510;54.486;9.046;2023-07-20T00:09:08;1.23;;;0.80;;
16837;SDS011;19510;54.486;9.046;2023-07-20T00:11:37;0.98;;;0.65;;
16837;SDS011;19510;54.486;9.046;2023-07-20T00:14:04;1.45;;;0.68;;
16837;SDS011;19510;54.486;9.046;2023-07-20T00:16:30;2.00;;;0.60;;
16837;SDS011;19510;54.486;9.046;2023-07-20T00:18:59;1.42;;;0.80;;
16837;SDS011;19510;54.486;9.046;2023-07-20T00:21:25;1.38;;;0.60;;
16837;SDS011;19510;54.486;9.046;2023-07-20T00:23:51;0.60;;;0.50;;
16837;SDS011;19510;54.486;9.046;2023-07-20T00:26:16;0.95;;;0.70;;
16837;SDS011;19510;54.486;9.046;2023-07-20T00:28:44;1.02;;;0.77;;
16837;SDS011;19510;54.486;9.046;2023-07-20T00:31:10;0.63;;;0.63;;
16837;SDS011;19510;54.486;9.046;2023-07-20T00:33:35;2.95;;;0.65;;
16837;SDS011;19510;54.486;9.046;2023-07-20T00:36:01;1.05;;;0.73;;
16837;SDS011;19510;54.486;9.046;2023-07-20T00:38:27;2.25;;;0.82;;
16837;SDS011;19510;54.486;9.046;2023-07-20T00:40:52;3.40;;;0.85;;
16837;SDS011;19510;54.486;9.046;2023-07-20T00:43:20;3.58;;;0.82;;
16837;SDS011;19510;54.486;9.046;2023-07-20T00:45:51;1.05;;;0.73;;
16837;SDS011;19510;54.486;9.046;2023-07-20T00:48:16;1.88;;;0.90;;
16837;SDS011;19510;54.486;9.046;2023-07-20T00:50:45;1.80;;;1.00;;
16837;SDS011;19510;54.486;9.046;2023-07-20T00:53:13;2.03;;;0.80;;
16837;SDS011;19510;54.486;9.046;2023-07-20T00:55:42;1.05;;;0.68;;
16837;SDS011;19510;54.486;9.046;2023-07-20T00:58:07;1.08;;;0.77;;
16837;SDS011;19510;54.486;9.046;2023-07-20T01:00:33;2.25;;;0.70;;
16837;SDS011;19510;54.486;9.046;2023-07-20T01:02:59;1.80;;;0.80;;
16837;SDS011;19510;54.486;9.046;2023-07-20T01:05:32;1.05;;;0.60;;
16837;SDS011;19510;54.486;9.046;2023-07-20T01:08:45;1.83;;;0.70;;
16837;SDS011;19510;54.486;9.046;2023-07-20T01:14:15;0.82;;;0.63;;
16837;SDS011;19510;54.486;9.046;2023-07-20T01:16:42;2.33;;;0.70;;
16837;SDS011;19510;54.486;9.046;2023-07-20T01:19:10;1.48;;;0.70;;
16837;SDS011;19510;54.486;9.046;2023-07-20T01:21:41;0.40;;;0.40;;
16837;SDS011;19510;54.486;9.046;2023-07-20T01:30:29;0.95;;;0.70;;
16837;SDS011;19510;54.486;9.046;2023-07-20T01:33:07;1.67;;;0.80;;
16837;SDS011;19510;54.486;9.046;2023-07-20T01:35:34;2.10;;;0.85;;
16837;SDS011;19510;54.486;9.046;2023-07-20T01:38:01;1.83;;;0.73;;
16837;SDS011;19510;54.486;9.046;2023-07-20T01:40:27;1.70;;;0.65;;
16837;SDS011;19510;54.486;9.046;2023-07-20T01:42:55;0.80;;;0.70;;
16837;SDS011;19510;54.486;9.046;2023-07-20T01:45:21;1.10;;;0.80;;
16837;SDS011;19510;54.486;9.046;2023-07-20T01:47:49;1.25;;;0.65;;
16837;SDS011;19510;54.486;9.046;2023-07-20T01:50:15;3.25;;;1.00;;
16837;SDS011;19510;54.486;9.046;2023-07-20T01:52:40;3.35;;;0.73;;
16837;SDS011;19510;54.486;9.046;2023-07-20T01:55:06;3.88;;;0.80;;
16837;SDS011;19510;54.486;9.046;2023-07-20T01:57:32;2.85;;;0.90;;
16837;SDS011;19510;54.486;9.046;2023-07-20T01:59:58;0.90;;;0.60;;
16837;SDS011;19510;54.486;9.046;2023-07-20T02:02:26;2.92;;;0.80;;
16837;SDS011;19510;54.486;9.046;2023-07-20T02:04:54;1.15;;;0.60;;
16837;SDS011;19510;54.486;9.046;2023-07-20T02:07:20;1.25;;;0.50;;
16837;SDS011;19510;54.486;9.046;2023-07-20T02:09:45;2.42;;;0.70;;
16837;SDS011;19510;54.486;9.046;2023-07-20T02:12:11;0.65;;;0.60;;
16837;SDS011;19510;54.486;9.046;2023-07-20T02:14:36;2.55;;;0.80;;
16837;SDS011;19510;54.486;9.046;2023-07-20T02:17:02;8.07;;;0.95;;
16837;SDS011;19510;54.486;9.046;2023-07-20T02:19:30;4.50;;;0.90;;
16837;SDS011;19510;54.486;9.046;2023-07-20T02:21:59;4.03;;;0.82;;
16837;SDS011;19510;54.486;9.046;2023-07-20T02:24:24;0.80;;;0.80;;
16837;SDS011;19510;54.486;9.046;2023-07-20T02:26:50;4.07;;;0.90;;
16837;SDS011;19510;54.486;9.046;2023-07-20T02:29:18;3.05;;;0.77;;
16837;SDS011;19510;54.486;9.046;2023-07-20T02:31:44;0.80;;;0.80;;
16837;SDS011;19510;54.486;9.046;2023-07-20T02:34:09;0.90;;;0.50;;
16837;SDS011;19510;54.486;9.046;2023-07-20T02:36:35;0.82;;;0.70;;
16837;SDS011;19510;54.486;9.046;2023-07-20T02:39:01;5.57;;;0.85;;
16837;SDS011;19510;54.486;9.046;2023-07-20T02:41:32;2.17;;;1.10;;
16837;SDS011;19510;54.486;9.046;2023-07-20T02:43:58;1.98;;;0.90;;
16837;SDS011;19510;54.486;9.046;2023-07-20T02:46:25;0.90;;;0.90;;
16837;SDS011;19510;54.486;9.046;2023-07-20T02:48:50;2.70;;;0.93;;
16837;SDS011;19510;54.486;9.046;2023-07-20T02:51:16;2.83;;;0.88;;
16837;SDS011;19510;54.486;9.046;2023-07-20T02:53:42;2.15;;;0.98;;
16837;SDS011;19510;54.486;9.046;2023-07-20T02:56:07;1.30;;;1.10;;
16837;SDS011;19510;54.486;9.046;2023-07-20T02:58:39;3.75;;;0.82;;
16837;SDS011;19510;54.486;9.046;2023-07-20T03:01:08;1.35;;;0.85;;
16837;SDS011;19510;54.486;9.046;2023-07-20T03:03:39;3.28;;;1.25;;
16837;SDS011;19510;54.486;9.046;2023-07-20T03:06:05;2.42;;;0.90;;
16837;SDS011;19510;54.486;9.046;2023-07-20T03:08:34;3.35;;;1.20;;
16837;SDS011;19510;54.486;9.046;2023-07-20T03:11:01;4.72;;;0.98;;
16837;SDS011;19510;54.486;9.046;2023-07-20T03:13:26;1.90;;;1.10;;
16837;SDS011;19510;54.486;9.046;2023-07-20T03:15:52;4.18;;;1.40;;
16837;SDS011;19510;54.486;9.046;2023-07-20T03:18:20;2.75;;;1.20;;
16837;SDS011;19510;54.486;9.046;2023-07-20T03:20:46;2.53;;;1.60;;
16837;SDS011;19510;54.486;9.046;2023-07-20T03:23:13;2.22;;;1.48;;
16837;SDS011;19510;54.486;9.046;2023-07-20T03:25:40;4.03;;;1.45;;
16837;SDS011;19510;54.486;9.046;2023-07-20T03:28:08;3.35;;;1.80;;
16837;SDS011;19510;54.486;9.046;2023-07-20T03:30:38;4.15;;;1.48;;
16837;SDS011;19510;54.486;9.046;2023-07-20T03:33:06;14.65;;;2.38;;
16837;SDS011;19510;54.486;9.046;2023-07-20T03:35:32;6.60;;;2.45;;
16837;SDS011;19510;54.486;9.046;2023-07-20T03:38:00;9.35;;;2.28;;
16837;SDS011;19510;54.486;9.046;2023-07-20T03:40:25;8.02;;;1.98;;
16837;SDS011;19510;54.486;9.046;2023-07-20T03:42:51;7.82;;;2.53;;
16837;SDS011;19510;54.486;9.046;2023-07-20T03:45:16;4.93;;;1.88;;
16837;SDS011;19510;54.486;9.046;2023-07-20T03:47:42;4.95;;;2.28;;
16837;SDS011;19510;54.486;9.046;2023-07-20T03:50:09;5.25;;;2.13;;
16837;SDS011;19510;54.486;9.046;2023-07-20T03:52:35;4.78;;;1.90;;
16837;SDS011;19510;54.486;9.046;2023-07-20T03:55:01;5.65;;;2.47;;
16837;SDS011;19510;54.486;9.046;2023-07-20T03:57:27;3.10;;;1.80;;
16837;SDS011;19510;54.486;9.046;2023-07-20T03:59:52;4.45;;;2.22;;
16837;SDS011;19510;54.486;9.046;2023-07-20T04:02:20;4.05;;;1.95;;
16837;SDS011;19510;54.486;9.046;2023-07-20T04:04:46;5.43;;;2.38;;
16837;SDS011;19510;54.486;9.046;2023-07-20T04:07:11;6.07;;;2.15;;
16837;SDS011;19510;54.486;9.046;2023-07-20T04:09:39;6.40;;;2.30;;
16837;SDS011;19510;54.486;9.046;2023-07-20T04:12:05;4.47;;;1.95;;
16837;SDS011;19510;54.486;9.046;2023-07-20T04:14:31;3.13;;;1.80;;
16837;SDS011;19510;54.486;9.046;2023-07-20T04:16:57;6.25;;;2.13;;
16837;SDS011;19510;54.486;9.046;2023-07-20T04:19:25;4.80;;;1.90;;
16837;SDS011;19510;54.486;9.046;2023-07-20T04:21:51;6.60;;;1.88;;
16837;SDS011;19510;54.486;9.046;2023-07-20T04:24:18;5.93;;;2.30;;
16837;SDS011;19510;54.486;9.046;2023-07-20T04:26:44;5.35;;;1.45;;
16837;SDS011;19510;54.486;9.046;2023-07-20T04:29:12;7.07;;;1.50;;
16837;SDS011;19510;54.486;9.046;2023-07-20T04:31:38;3.00;;;1.60;;
16837;SDS011;19510;54.486;9.046;2023-07-20T04:34:06;2.78;;;1.33;;
16837;SDS011;19510;54.486;9.046;2023-07-20T04:36:32;3.47;;;1.80;;
16837;SDS011;19510;54.486;9.046;2023-07-20T04:38:57;9.77;;;2.58;;
16837;SDS011;19510;54.486;9.046;2023-07-20T04:41:23;6.22;;;1.48;;
16837;SDS011;19510;54.486;9.046;2023-07-20T04:43:50;3.03;;;1.58;;
16837;SDS011;19510;54.486;9.046;2023-07-20T04:46:15;3.35;;;1.25;;
16837;SDS011;19510;54.486;9.046;2023-07-20T04:48:43;5.72;;;1.50;;
16837;SDS011;19510;54.486;9.046;2023-07-20T04:51:08;5.07;;;1.60;;
16837;SDS011;19510;54.486;9.046;2023-07-20T04:53:35;6.05;;;1.38;;
16837;SDS011;19510;54.486;9.046;2023-07-20T04:56:01;4.70;;;1.45;;
16837;SDS011;19510;54.486;9.046;2023-07-20T04:58:26;2.45;;;1.33;;
16837;SDS011;19510;54.486;9.046;2023-07-20T05:00:52;6.38;;;2.05;;
16837;SDS011;19510;54.486;9.046;2023-07-20T05:03:18;2.67;;;1.50;;
16837;SDS011;19510;54.486;9.046;2023-07-20T05:05:44;5.47;;;1.58;;
16837;SDS011;19510;54.486;9.046;2023-07-20T05:08:12;7.65;;;1.60;;
16837;SDS011;19510;54.486;9.046;2023-07-20T05:10:41;3.83;;;1.58;;
16837;SDS011;19510;54.486;9.046;2023-07-20T05:13:06;3.58;;;1.40;;
16837;SDS011;19510;54.486;9.046;2023-07-20T05:15:33;7.03;;;1.50;;
16837;SDS011;19510;54.486;9.046;2023-07-20T05:18:01;5.85;;;1.45;;
16837;SDS011;19510;54.486;9.046;2023-07-20T05:20:27;3.80;;;1.45;;
16837;SDS011;19510;54.486;9.046;2023-07-20T05:22:52;5.47;;;1.50;;
16837;SDS011;19510;54.486;9.046;2023-07-20T05:25:18;6.03;;;1.20;;
16837;SDS011;19510;54.486;9.046;2023-07-20T05:27:44;8.32;;;1.60;;
16837;SDS011;19510;54.486;9.046;2023-07-20T05:30:10;8.38;;;1.85;;
16837;SDS011;19510;54.486;9.046;2023-07-20T05:32:41;5.50;;;1.25;;
16837;SDS011;19510;54.486;9.046;2023-07-20T05:35:07;5.43;;;1.70;;
16837;SDS011;19510;54.486;9.046;2023-07-20T05:37:36;4.80;;;1.52;;
16837;SDS011;19510;54.486;9.046;2023-07-20T05:40:03;6.30;;;1.40;;
16837;SDS011;19510;54.486;9.046;2023-07-20T05:42:33;9.20;;;1.40;;
16837;SDS011;19510;54.486;9.046;2023-07-20T05:44:58;9.23;;;1.15;;
16837;SDS011;19510;54.486;9.046;2023-07-20T05:47:24;6.15;;;1.55;;
16837;SDS011;19510;54.486;9.046;2023-07-20T05:49:50;3.13;;;1.08;;
16837;SDS011;19510;54.486;9.046;2023-07-20T05:52:15;3.72;;;1.35;;
16837;SDS011;19510;54.486;9.046;2023-07-20T05:54:41;4.30;;;1.00;;
16837;SDS011;19510;54.486;9.046;2023-07-20T05:57:09;4.65;;;1.25;;
16837;SDS011;19510;54.486;9.046;2023-07-20T05:59:35;3.17;;;1.30;;
16837;SDS011;19510;54.486;9.046;2023-07-20T06:02:03;4.55;;;1.60;;
16837;SDS011;19510;54.486;9.046;2023-07-20T06:04:29;4.25;;;1.35;;
16837;SDS011;19510;54.486;9.046;2023-07-20T06:06:56;7.40;;;1.10;;
16837;SDS011;19510;54.486;9.046;2023-07-20T06:09:26;4.10;;;1.40;;
16837;SDS011;19510;54.486;9.046;2023-07-20T06:11:52;3.65;;;0.93;;
16837;SDS011;19510;54.486;9.046;2023-07-20T06:14:18;5.72;;;1.20;;
16837;SDS011;19510;54.486;9.046;2023-07-20T06:16:44;4.13;;;1.15;;
16837;SDS011;19510;54.486;9.046;2023-07-20T06:19:10;1.52;;;1.00;;
16837;SDS011;19510;54.486;9.046;2023-07-20T06:21:38;4.05;;;1.27;;
16837;SDS011;19510;54.486;9.046;2023-07-20T06:24:04;7.05;;;1.02;;
16837;SDS011;19510;54.486;9.046;2023-07-20T06:26:30;1.95;;;0.90;;
16837;SDS011;19510;54.486;9.046;2023-07-20T06:29:03;6.85;;;1.50;;
16837;SDS011;19510;54.486;9.046;2023-07-20T06:31:28;7.90;;;1.10;;
16837;SDS011;19510;54.486;9.046;2023-07-20T06:33:54;5.03;;;0.88;;
16837;SDS011;19510;54.486;9.046;2023-07-20T06:36:20;4.47;;;1.05;;
16837;SDS011;19510;54.486;9.046;2023-07-20T06:38:46;4.13;;;1.20;;
16837;SDS011;19510;54.486;9.046;2023-07-20T06:41:11;6.55;;;0.90;;
16837;SDS011;19510;54.486;9.046;2023-07-20T06:43:37;3.15;;;0.95;;
16837;SDS011;19510;54.486;9.046;2023-07-20T06:46:03;5.82;;;1.00;;
16837;SDS011;19510;54.486;9.046;2023-07-20T06:48:29;5.03;;;1.02;;
16837;SDS011;19510;54.486;9.046;2023-07-20T06:50:54;2.35;;;1.20;;
16837;SDS011;19510;54.486;9.046;2023-07-20T06:53:20;3.40;;;0.88;;
16837;SDS011;19510;54.486;9.046;2023-07-20T06:55:46;3.40;;;0.93;;
16837;SDS011;19510;54.486;9.046;2023-07-20T06:58:15;1.35;;;0.90;;
16837;SDS011;19510;54.486;9.046;2023-07-20T07:00:41;2.67;;;0.65;;
16837;SDS011;19510;54.486;9.046;2023-07-20T07:03:07;1.83;;;0.68;;
16837;SDS011;19510;54.486;9.046;2023-07-20T07:05:36;3.17;;;1.10;;
16837;SDS011;19510;54.486;9.046;2023-07-20T07:08:03;3.55;;;1.10;;
16837;SDS011;19510;54.486;9.046;2023-07-20T07:10:29;6.72;;;1.08;;
16837;SDS011;19510;54.486;9.046;2023-07-20T07:12:55;3.97;;;1.00;;
16837;SDS011;19510;54.486;9.046;2023-07-20T07:15:21;6.28;;;1.17;;
16837;SDS011;19510;54.486;9.046;2023-07-20T07:17:46;1.95;;;0.70;;
16837;SDS011;19510;54.486;9.046;2023-07-20T07:20:12;5.53;;;0.90;;
16837;SDS011;19510;54.486;9.046;2023-07-20T07:22:38;3.22;;;0.60;;
16837;SDS011;19510;54.486;9.046;2023-07-20T07:25:04;0.95;;;0.45;;
16837;SDS011;19510;54.486;9.046;2023-07-20T07:27:30;2.80;;;0.80;;
16837;SDS011;19510;54.486;9.046;2023-07-20T07:29:56;5.22;;;0.80;;
16837;SDS011;19510;54.486;9.046;2023-07-20T07:32:22;5.43;;;0.60;;
16837;SDS011;19510;54.486;9.046;2023-07-20T07:34:49;2.38;;;0.50;;
16837;SDS011;19510;54.486;9.046;2023-07-20T07:37:14;1.90;;;0.50;;
16837;SDS011;19510;54.486;9.046;2023-07-20T07:39:41;3.17;;;0.70;;
16837;SDS011;19510;54.486;9.046;2023-07-20T07:42:06;1.45;;;0.30;;
16837;SDS011;19510;54.486;9.046;2023-07-20T07:44:32;3.83;;;0.63;;
16837;SDS011;19510;54.486;9.046;2023-07-20T07:46:58;4.78;;;1.10;;
16837;SDS011;19510;54.486;9.046;2023-07-20T07:49:23;2.25;;;0.68;;
16837;SDS011;19510;54.486;9.046;2023-07-20T07:51:49;5.18;;;0.50;;
16837;SDS011;19510;54.486;9.046;2023-07-20T07:54:15;4.60;;;1.08;;
16837;SDS011;19510;54.486;9.046;2023-07-20T07:56:41;0.65;;;0.60;;
16837;SDS011;19510;54.486;9.046;2023-07-20T07:59:07;1.75;;;0.40;;
16837;SDS011;19510;54.486;9.046;2023-07-20T08:01:33;1.75;;;0.50;;
16837;SDS011;19510;54.486;9.046;2023-07-20T08:03:58;2.08;;;0.60;;
16837;SDS011;19510;54.486;9.046;2023-07-20T08:06:24;5.78;;;0.50;;
16837;SDS011;19510;54.486;9.046;2023-07-20T08:08:50;4.57;;;0.50;;
16837;SDS011;19510;54.486;9.046;2023-07-20T08:11:16;1.85;;;0.60;;
16837;SDS011;19510;54.486;9.046;2023-07-20T08:13:43;5.05;;;0.75;;
16837;SDS011;19510;54.486;9.046;2023-07-20T08:16:08;1.88;;;0.60;;
16837;SDS011;19510;54.486;9.046;2023-07-20T08:18:34;1.85;;;0.55;;
16837;SDS011;19510;54.486;9.046;2023-07-20T08:21:00;2.15;;;0.60;;
16837;SDS011;19510;54.486;9.046;2023-07-20T08:23:26;3.33;;;0.70;;
16837;SDS011;19510;54.486;9.046;2023-07-20T08:25:52;4.82;;;0.65;;
16837;SDS011;19510;54.486;9.046;2023-07-20T08:28:21;4.28;;;1.20;;
16837;SDS011;19510;54.486;9.046;2023-07-20T08:30:47;4.97;;;0.80;;
16837;SDS011;19510;54.486;9.046;2023-07-20T08:33:14;2.58;;;0.70;;
16837;SDS011;19510;54.486;9.046;2023-07-20T08:35:40;2.28;;;0.93;;
16837;SDS011;19510;54.486;9.046;2023-07-20T08:38:06;6.57;;;2.03;;
16837;SDS011;19510;54.486;9.046;2023-07-20T08:40:33;2.35;;;0.70;;
16837;SDS011;19510;54.486;9.046;2023-07-20T08:43:03;4.68;;;1.35;;
16837;SDS011;19510;54.486;9.046;2023-07-20T08:45:29;6.20;;;1.00;;
16837;SDS011;19510;54.486;9.046;2023-07-20T08:47:59;5.30;;;0.90;;
16837;SDS011;19510;54.486;9.046;2023-07-20T08:50:27;5.53;;;1.35;;
16837;SDS011;19510;54.486;9.046;2023-07-20T08:52:56;1.98;;;1.40;;
16837;SDS011;19510;54.486;9.046;2023-07-20T08:55:24;5.68;;;0.95;;
16837;SDS011;19510;54.486;9.046;2023-07-20T08:57:57;3.95;;;1.00;;
16837;SDS011;19510;54.486;9.046;2023-07-20T09:00:24;7.70;;;1.95;;
16837;SDS011;19510;54.486;9.046;2023-07-20T09:02:52;6.00;;;1.38;;
16837;SDS011;19510;54.486;9.046;2023-07-20T09:05:22;7.07;;;1.00;;
16837;SDS011;19510;54.486;9.046;2023-07-20T09:07:49;5.13;;;1.30;;
16837;SDS011;19510;54.486;9.046;2023-07-20T09:10:18;6.70;;;0.95;;
16837;SDS011;19510;54.486;9.046;2023-07-20T09:12:48;6.63;;;1.50;;
16837;SDS011;19510;54.486;9.046;2023-07-20T09:15:14;1.83;;;0.85;;
16837;SDS011;19510;54.486;9.046;2023-07-20T09:17:45;3.50;;;1.20;;
16837;SDS011;19510;54.486;9.046;2023-07-20T09:20:12;9.18;;;2.80;;
16837;SDS011;19510;54.486;9.046;2023-07-20T09:22:41;10.38;;;1.70;;
16837;SDS011;19510;54.486;9.046;2023-07-20T09:25:13;9.68;;;1.70;;
16837;SDS011;19510;54.486;9.046;2023-07-20T09:27:42;3.22;;;1.27;;
16837;SDS011;19510;54.486;9.046;2023-07-20T09:30:10;9.93;;;1.13;;
16837;SDS011;19510;54.486;9.046;2023-07-20T09:32:46;2.65;;;1.20;;
16837;SDS011;19510;54.486;9.046;2023-07-20T09:35:13;6.72;;;0.98;;
16837;SDS011;19510;54.486;9.046;2023-07-20T09:37:47;5.93;;;1.17;;
16837;SDS011;19510;54.486;9.046;2023-07-20T09:40:16;5.07;;;1.33;;
16837;SDS011;19510;54.486;9.046;2023-07-20T09:42:43;6.95;;;1.48;;
16837;SDS011;19510;54.486;9.046;2023-07-20T09:45:09;5.10;;;1.13;;
16837;SDS011;19510;54.486;9.046;2023-07-20T09:47:36;4.85;;;0.90;;
16837;SDS011;19510;54.486;9.046;2023-07-20T09:50:03;7.40;;;1.10;;
16837;SDS011;19510;54.486;9.046;2023-07-20T09:52:30;7.75;;;1.25;;
16837;SDS011;19510;54.486;9.046;2023-07-20T09:54:56;6.53;;;1.23;;
16837;SDS011;19510;54.486;9.046;2023-07-20T09:57:23;5.80;;;1.13;;
16837;SDS011;19510;54.486;9.046;2023-07-20T09:59:49;8.00;;;0.90;;
16837;SDS011;19510;54.486;9.046;2023-07-20T10:02:30;7.80;;;1.45;;
16837;SDS011;19510;54.486;9.046;2023-07-20T10:04:58;3.45;;;1.13;;
16837;SDS011;19510;54.486;9.046;2023-07-20T10:07:28;8.48;;;1.40;;
16837;SDS011;19510;54.486;9.046;2023-07-20T10:09:55;3.08;;;1.25;;
16837;SDS011;19510;54.486;9.046;2023-07-20T10:12:23;7.80;;;1.10;;
16837;SDS011;19510;54.486;9.046;2023-07-20T10:14:54;5.10;;;1.40;;
16837;SDS011;19510;54.486;9.046;2023-07-20T10:17:30;4.57;;;1.77;;
16837;SDS011;19510;54.486;9.046;2023-07-20T10:19:56;5.70;;;1.20;;
16837;SDS011;19510;54.486;9.046;2023-07-20T10:22:25;4.13;;;1.27;;
16837;SDS011;19510;54.486;9.046;2023-07-20T10:24:52;4.30;;;1.27;;
16837;SDS011;19510;54.486;9.046;2023-07-20T10:27:22;10.80;;;1.73;;
16837;SDS011;19510;54.486;9.046;2023-07-20T10:29:48;3.05;;;0.93;;
16837;SDS011;19510;54.486;9.046;2023-07-20T10:32:16;8.25;;;1.65;;
16837;SDS011;19510;54.486;9.046;2023-07-20T10:34:42;11.80;;;1.30;;
16837;SDS011;19510;54.486;9.046;2023-07-20T10:37:08;5.80;;;2.05;;
16837;SDS011;19510;54.486;9.046;2023-07-20T10:39:33;4.50;;;0.95;;
16837;SDS011;19510;54.486;9.046;2023-07-20T10:42:00;3.00;;;1.20;;
16837;SDS011;19510;54.486;9.046;2023-07-20T10:44:28;4.18;;;1.02;;
16837;SDS011;19510;54.486;9.046;2023-07-20T10:47:01;7.45;;;1.25;;
16837;SDS011;19510;54.486;9.046;2023-07-20T10:49:32;4.53;;;1.25;;
16837;SDS011;19510;54.486;9.046;2023-07-20T10:52:00;7.07;;;1.52;;
16837;SDS011;19510;54.486;9.046;2023-07-20T10:56:56;8.45;;;1.40;;
16837;SDS011;19510;54.486;9.046;2023-07-20T11:01:48;6.45;;;1.17;;
16837;SDS011;19510;54.486;9.046;2023-07-20T11:04:15;9.18;;;1.40;;
16837;SDS011;19510;54.486;9.046;2023-07-20T11:06:43;4.85;;;1.17;;
16837;SDS011;19510;54.486;9.046;2023-07-20T11:09:10;3.88;;;1.60;;
16837;SDS011;19510;54.486;9.046;2023-07-20T11:11:40;8.15;;;1.20;;
16837;SDS011;19510;54.486;9.046;2023-07-20T11:14:10;8.57;;;1.30;;
16837;SDS011;19510;54.486;9.046;2023-07-20T11:16:46;6.50;;;1.05;;
16837;SDS011;19510;54.486;9.046;2023-07-20T11:19:14;8.40;;;1.42;;
16837;SDS011;19510;54.486;9.046;2023-07-20T11:21:43;3.72;;;0.95;;
16837;SDS011;19510;54.486;9.046;2023-07-20T11:24:10;4.03;;;0.70;;
16837;SDS011;19510;54.486;9.046;2023-07-20T11:26:45;5.20;;;1.23;;
16837;SDS011;19510;54.486;9.046;2023-07-20T11:29:11;7.90;;;1.80;;
16837;SDS011;19510;54.486;9.046;2023-07-20T11:31:38;8.02;;;2.13;;
16837;SDS011;19510;54.486;9.046;2023-07-20T11:34:06;3.78;;;1.15;;
16837;SDS011;19510;54.486;9.046;2023-07-20T11:36:44;7.03;;;1.23;;
16837;SDS011;19510;54.486;9.046;2023-07-20T11:39:12;5.97;;;1.25;;
16837;SDS011;19510;54.486;9.046;2023-07-20T11:41:43;6.32;;;1.10;;
16837;SDS011;19510;54.486;9.046;2023-07-20T11:44:11;8.50;;;1.80;;
16837;SDS011;19510;54.486;9.046;2023-07-20T11:46:40;4.93;;;0.90;;
16837;SDS011;19510;54.486;9.046;2023-07-20T11:49:07;3.90;;;1.17;;
16837;SDS011;19510;54.486;9.046;2023-07-20T11:51:33;6.68;;;1.08;;
16837;SDS011;19510;54.486;9.046;2023-07-20T11:54:00;9.27;;;1.80;;
16837;SDS011;19510;54.486;9.046;2023-07-20T11:56:27;4.88;;;1.20;;
16837;SDS011;19510;54.486;9.046;2023-07-20T11:58:59;3.67;;;0.82;;
16837;SDS011;19510;54.486;9.046;2023-07-20T12:01:27;5.78;;;1.38;;
16837;SDS011;19510;54.486;9.046;2023-07-20T12:04:01;4.97;;;1.70;;
16837;SDS011;19510;54.486;9.046;2023-07-20T12:06:32;5.93;;;1.20;;
16837;SDS011;19510;54.486;9.046;2023-07-20T12:08:58;3.55;;;1.00;;
16837;SDS011;19510;54.486;9.046;2023-07-20T12:11:34;3.03;;;1.13;;
16837;SDS011;19510;54.486;9.046;2023-07-20T12:14:03;3.85;;;0.90;;
16837;SDS011;19510;54.486;9.046;2023-07-20T12:16:32;3.72;;;0.88;;
16837;SDS011;19510;54.486;9.046;2023-07-20T12:19:05;4.32;;;1.00;;
16837;SDS011;19510;54.486;9.046;2023-07-20T12:21:36;3.28;;;1.20;;
16837;SDS011;19510;54.486;9.046;2023-07-20T12:24:04;6.32;;;1.48;;
16837;SDS011;19510;54.486;9.046;2023-07-20T12:26:31;4.25;;;0.88;;
16837;SDS011;19510;54.486;9.046;2023-07-20T12:28:57;5.93;;;1.08;;
16837;SDS011;19510;54.486;9.046;2023-07-20T12:31:23;4.43;;;1.13;;
16837;SDS011;19510;54.486;9.046;2023-07-20T12:33:50;2.33;;;1.00;;
16837;SDS011;19510;54.486;9.046;2023-07-20T12:36:17;7.40;;;1.10;;
16837;SDS011;19510;54.486;9.046;2023-07-20T12:38:43;2.50;;;1.05;;
16837;SDS011;19510;54.486;9.046;2023-07-20T12:41:09;4.43;;;0.93;;
16837;SDS011;19510;54.486;9.046;2023-07-20T12:43:42;6.25;;;1.10;;
16837;SDS011;19510;54.486;9.046;2023-07-20T12:46:09;3.65;;;0.80;;
16837;SDS011;19510;54.486;9.046;2023-07-20T12:48:37;2.55;;;1.05;;
16837;SDS011;19510;54.486;9.046;2023-07-20T12:51:03;2.58;;;1.00;;
16837;SDS011;19510;54.486;9.046;2023-07-20T12:53:29;4.68;;;1.33;;
16837;SDS011;19510;54.486;9.046;2023-07-20T12:55:56;2.78;;;1.20;;
16837;SDS011;19510;54.486;9.046;2023-07-20T12:58:22;3.90;;;0.80;;
16837;SDS011;19510;54.486;9.046;2023-07-20T13:00:49;4.05;;;1.00;;
16837;SDS011;19510;54.486;9.046;2023-07-20T13:03:15;2.65;;;0.93;;
16837;SDS011;19510;54.486;9.046;2023-07-20T13:05:43;3.90;;;1.10;;
16837;SDS011;19510;54.486;9.046;2023-07-20T13:08:09;4.30;;;1.10;;
16837;SDS011;19510;54.486;9.046;2023-07-20T13:10:35;2.78;;;1.10;;
16837;SDS011;19510;54.486;9.046;2023-07-20T13:13:01;6.90;;;1.63;;
16837;SDS011;19510;54.486;9.046;2023-07-20T13:15:40;5.35;;;1.10;;
16837;SDS011;19510;54.486;9.046;2023-07-20T13:18:07;3.03;;;1.00;;
16837;SDS011;19510;54.486;9.046;2023-07-20T13:20:32;3.70;;;0.85;;
16837;SDS011;19510;54.486;9.046;2023-07-20T13:22:58;2.25;;;1.02;;
16837;SDS011;19510;54.486;9.046;2023-07-20T13:25:24;1.42;;;1.10;;
16837;SDS011;19510;54.486;9.046;2023-07-20T13:27:50;3.80;;;1.50;;
16837;SDS011;19510;54.486;9.046;2023-07-20T13:30:16;1.88;;;1.33;;
16837;SDS011;19510;54.486;9.046;2023-07-20T13:32:42;2.05;;;0.70;;
16837;SDS011;19510;54.486;9.046;2023-07-20T13:35:09;3.13;;;0.82;;
16837;SDS011;19510;54.486;9.046;2023-07-20T13:37:35;8.02;;;2.10;;
16837;SDS011;19510;54.486;9.046;2023-07-20T13:40:01;6.07;;;1.05;;
16837;SDS011;19510;54.486;9.046;2023-07-20T13:42:29;3.00;;;0.90;;
16837;SDS011;19510;54.486;9.046;2023-07-20T13:44:55;7.30;;;1.10;;
16837;SDS011;19510;54.486;9.046;2023-07-20T13:47:20;2.70;;;1.25;;
16837;SDS011;19510;54.486;9.046;2023-07-20T13:49:46;3.72;;;1.13;;
16837;SDS011;19510;54.486;9.046;2023-07-20T13:52:12;7.35;;;1.08;;
16837;SDS011;19510;54.486;9.046;2023-07-20T13:54:38;7.18;;;1.05;;
16837;SDS011;19510;54.486;9.046;2023-07-20T13:57:03;2.90;;;1.10;;
16837;SDS011;19510;54.486;9.046;2023-07-20T13:59:29;5.50;;;1.20;;
16837;SDS011;19510;54.486;9.046;2023-07-20T14:01:55;5.53;;;1.10;;
16837;SDS011;19510;54.486;9.046;2023-07-20T14:04:21;3.78;;;1.40;;
16837;SDS011;19510;54.486;9.046;2023-07-20T14:06:47;5.25;;;1.10;;
16837;SDS011;19510;54.486;9.046;2023-07-20T14:09:12;2.80;;;1.02;;
16837;SDS011;19510;54.486;9.046;2023-07-20T14:11:38;3.67;;;1.00;;
16837;SDS011;19510;54.486;9.046;2023-07-20T14:14:04;7.60;;;1.20;;
16837;SDS011;19510;54.486;9.046;2023-07-20T14:16:30;4.60;;;1.00;;
16837;SDS011;19510;54.486;9.046;2023-07-20T14:18:57;7.25;;;2.17;;
16837;SDS011;19510;54.486;9.046;2023-07-20T14:21:23;2.42;;;0.82;;
16837;SDS011;19510;54.486;9.046;2023-07-20T14:23:50;5.03;;;1.00;;
16837;SDS011;19510;54.486;9.046;2023-07-20T14:26:20;2.78;;;1.00;;
16837;SDS011;19510;54.486;9.046;2023-07-20T14:28:48;2.38;;;0.77;;
16837;SDS011;19510;54.486;9.046;2023-07-20T14:31:14;1.70;;;0.80;;
16837;SDS011;19510;54.486;9.046;2023-07-20T14:33:40;6.72;;;1.30;;
16837;SDS011;19510;54.486;9.046;2023-07-20T14:36:06;2.30;;;1.20;;
16837;SDS011;19510;54.486;9.046;2023-07-20T14:38:33;4.40;;;0.82;;
16837;SDS011;19510;54.486;9.046;2023-07-20T14:40:59;4.57;;;1.13;;
16837;SDS011;19510;54.486;9.046;2023-07-20T14:43:25;4.45;;;1.70;;
16837;SDS011;19510;54.486;9.046;2023-07-20T14:45:51;4.00;;;1.00;;
16837;SDS011;19510;54.486;9.046;2023-07-20T14:48:17;4.05;;;0.70;;
16837;SDS011;19510;54.486;9.046;2023-07-20T14:50:42;3.53;;;0.80;;
16837;SDS011;19510;54.486;9.046;2023-07-20T14:53:11;6.00;;;1.70;;
16837;SDS011;19510;54.486;9.046;2023-07-20T14:55:37;8.77;;;1.73;;
16837;SDS011;19510;54.486;9.046;2023-07-20T14:58:03;3.03;;;0.73;;
16837;SDS011;19510;54.486;9.046;2023-07-20T15:00:29;1.67;;;0.80;;
16837;SDS011;19510;54.486;9.046;2023-07-20T15:02:55;2.05;;;0.70;;